Time,TemperatureF,DewpointF,PressureIn,WindDirection,WindDirectionDegrees,WindSpeedMPH,WindSpeedGustMPH,Humidity,HourlyPrecipIn,Conditions,Clouds,dailyrainin,SolarRadiationWatts/m^2,SoftwareType,DateUTC
2013-06-20 02:52:00,80.0,51.0,-100.00,SSE,166,7.0,13.0,36,0.00,,,0.00,0.000000,,2013-06-20 09:52:00,
2013-06-20 03:01:00,80.0,51.0,-100.00,SSE,166,7.0,13.0,36,0.00,,,0.00,0.000000,,2013-06-20 10:01:00,
2013-06-20 03:11:00,80.0,51.0,-100.00,SSE,166,7.0,13.0,36,0.00,,,0.00,0.000000,,2013-06-20 10:11:00,
2013-06-20 03:22:00,80.0,51.0,-100.00,SSE,166,7.0,13.0,36,0.00,,,0.00,0.000000,,2013-06-20 10:22:00,
2013-06-20 03:53:00,79.0,52.0,-100.00,South,177,4.0,12.0,39,0.00,,,0.00,0.000000,,2013-06-20 10:53:00,
2013-06-20 04:02:00,79.0,52.0,-100.00,South,177,4.0,12.0,39,0.00,,,0.00,0.000000,,2013-06-20 11:02:00,
2013-06-20 04:11:00,79.0,52.0,-100.00,South,177,4.0,12.0,39,0.00,,,0.00,0.000000,,2013-06-20 11:11:00,
2013-06-20 04:22:00,79.0,52.0,-100.00,South,177,4.0,12.0,39,0.00,,,0.00,0.000000,,2013-06-20 11:22:00,
2013-06-20 04:53:00,81.0,50.0,-100.00,SSW,212,6.0,10.0,34,0.00,,,0.00,0.000000,,2013-06-20 11:53:00,
2013-06-20 05:02:00,81.0,50.0,-100.00,SSW,212,6.0,10.0,34,0.00,,,0.00,0.000000,,2013-06-20 12:02:00,
2013-06-20 05:11:00,81.0,50.0,-100.00,SSW,212,6.0,10.0,34,0.00,,,0.00,0.000000,,2013-06-20 12:11:00,
2013-06-20 05:22:00,81.0,50.0,-100.00,SSW,212,6.0,10.0,34,0.00,,,0.00,0.000000,,2013-06-20 12:22:00,
2013-06-20 05:53:00,76.0,58.0,-100.00,South,179,7.0,9.0,54,0.00,,,0.00,0.000000,,2013-06-20 12:53:00,
2013-06-20 06:02:00,76.0,58.0,-100.00,South,179,7.0,9.0,54,0.00,,,0.00,0.000000,,2013-06-20 13:02:00,
2013-06-20 06:11:00,76.0,58.0,-100.00,South,179,7.0,9.0,54,0.00,,,0.00,0.000000,,2013-06-20 13:11:00,
2013-06-20 06:22:00,76.0,58.0,-100.00,South,179,7.0,9.0,54,0.00,,,0.00,0.000000,,2013-06-20 13:22:00,
2013-06-20 06:53:00,77.0,55.0,-100.00,South,175,3.0,8.0,46,0.00,,,-99.99,56.000000,,2013-06-20 13:53:00,
2013-06-20 07:01:00,77.0,55.0,-100.00,South,175,3.0,8.0,46,0.00,,,-99.99,56.000000,,2013-06-20 14:01:00,
2013-06-20 07:11:00,77.0,55.0,-100.00,South,175,3.0,8.0,46,0.00,,,-99.99,56.000000,,2013-06-20 14:11:00,
2013-06-20 07:22:00,77.0,55.0,-100.00,South,175,3.0,8.0,46,0.00,,,-99.99,56.000000,,2013-06-20 14:22:00,
2013-06-20 07:53:00,81.0,55.0,-100.00,South,175,4.0,9.0,41,0.00,,,0.00,232.000000,,2013-06-20 14:53:00,
2013-06-20 08:01:00,81.0,55.0,-100.00,South,175,4.0,9.0,41,0.00,,,0.00,232.000000,,2013-06-20 15:01:00,
2013-06-20 08:11:00,81.0,55.0,-100.00,South,175,4.0,9.0,41,0.00,,,0.00,232.000000,,2013-06-20 15:11:00,
2013-06-20 08:22:00,81.0,55.0,-100.00,South,175,4.0,9.0,41,0.00,,,0.00,232.000000,,2013-06-20 15:22:00,
2013-06-20 08:53:00,87.0,51.0,-100.00,SSE,158,4.0,8.0,29,0.00,,,-99.99,459.000000,,2013-06-20 15:53:00,
2013-06-20 09:01:00,87.0,51.0,-100.00,SSE,158,4.0,8.0,29,0.00,,,-99.99,459.000000,,2013-06-20 16:01:00,
2013-06-20 09:11:00,87.0,51.0,-100.00,SSE,158,4.0,8.0,29,0.00,,,-99.99,459.000000,,2013-06-20 16:11:00,
2013-06-20 09:22:00,87.0,51.0,-100.00,SSE,158,4.0,8.0,29,0.00,,,-99.99,459.000000,,2013-06-20 16:22:00,
2013-06-20 09:52:00,89.0,45.0,-100.00,SSW,196,6.0,10.0,22,0.00,,,0.00,768.000000,,2013-06-20 16:52:00,
2013-06-20 10:01:00,89.0,45.0,-100.00,SSW,196,6.0,10.0,22,0.00,,,0.00,768.000000,,2013-06-20 17:01:00,
2013-06-20 10:11:00,89.0,45.0,-100.00,SSW,196,6.0,10.0,22,0.00,,,0.00,768.000000,,2013-06-20 17:11:00,
2013-06-20 10:21:00,89.0,45.0,-100.00,SSW,196,6.0,10.0,22,0.00,,,0.00,768.000000,,2013-06-20 17:21:00,
2013-06-20 11:01:00,95.0,32.0,-100.00,SSE,160,3.0,10.0,11,0.00,,,0.00,990.000000,,2013-06-20 18:01:00,
2013-06-20 11:11:00,95.0,32.0,-100.00,SSE,160,3.0,10.0,11,0.00,,,0.00,990.000000,,2013-06-20 18:11:00,
2013-06-20 11:22:00,95.0,32.0,-100.00,SSE,160,3.0,10.0,11,0.00,,,0.00,990.000000,,2013-06-20 18:22:00,
2013-06-20 11:53:00,98.0,30.0,-100.00,South,173,6.0,12.0,9,0.00,,,0.00,1148.000000,,2013-06-20 18:53:00,
2013-06-20 12:01:00,98.0,30.0,-100.00,South,173,6.0,12.0,9,0.00,,,0.00,1148.000000,,2013-06-20 19:01:00,
2013-06-20 12:11:00,98.0,30.0,-100.00,South,173,6.0,12.0,9,0.00,,,0.00,1148.000000,,2013-06-20 19:11:00,
2013-06-20 12:22:00,98.0,30.0,-100.00,South,173,6.0,12.0,9,0.00,,,0.00,1148.000000,,2013-06-20 19:22:00,
2013-06-20 12:52:00,101.0,34.0,-100.00,South,180,5.0,13.0,10,0.00,,,0.00,1236.000000,,2013-06-20 19:52:00,
2013-06-20 13:02:00,101.0,34.0,-100.00,South,180,5.0,13.0,10,0.00,,,0.00,1236.000000,,2013-06-20 20:02:00,
2013-06-20 13:11:00,101.0,34.0,-100.00,South,180,5.0,13.0,10,0.00,,,0.00,1236.000000,,2013-06-20 20:11:00,
2013-06-20 13:22:00,101.0,34.0,-100.00,South,180,5.0,13.0,10,0.00,,,0.00,1236.000000,,2013-06-20 20:22:00,
2013-06-20 13:52:00,102.0,32.0,-100.00,South,188,6.0,14.0,9,0.00,,,0.00,1254.000000,,2013-06-20 20:52:00,
2013-06-20 14:01:00,102.0,32.0,-100.00,South,188,6.0,14.0,9,0.00,,,0.00,1254.000000,,2013-06-20 21:01:00,
2013-06-20 14:11:00,102.0,32.0,-100.00,South,188,6.0,14.0,9,0.00,,,0.00,1254.000000,,2013-06-20 21:11:00,
2013-06-20 15:12:00,105.0,35.0,-100.00,South,176,5.0,17.0,9,0.00,,,0.00,1170.000000,,2013-06-20 22:12:00,
2013-06-20 17:11:00,106.0,33.0,-100.00,SW,223,8.0,18.0,8,0.00,,,0.00,892.000000,,2013-06-21 00:11:00,
2013-06-20 21:11:00,96.0,28.0,-100.00,West,259,3.0,8.0,9,0.00,,,0.00,7.000000,,2013-06-21 04:11:00,